Time;durP1;ratioP1;P1;durP2;ratioP2;P2;SDS_P1;SDS_P2;PMS_P1;PMS_P2;Temp;Humidity;BMP_temperature;BMP_pressure;BME280_temperature;BME280_humidity;BME280_pressure;Samples;Min_cycle;Max_cycle;Signal;HPM_P1;HPM_P2
2022/12/11 00:00:21;;;;;;;97.43;19.80;;;;;;;;;;5070316;28;20507;-78
2022/12/11 00:02:48;;;;;;;88.80;19.85;;;;;;;;;;5092966;28;20408;-78
2022/12/11 00:05:16;;;;;;;97.82;21.27;;;;;;;;;;5105606;27;20061;-78
2022/12/11 00:07:43;;;;;;;90.20;19.52;;;;;;;;;;5103717;28;20162;-78
2022/12/11 00:10:09;;;;;;;83.95;19.98;;;;;;;;;;5102609;28;20049;-78
2022/12/11 00:12:35;;;;;;;83.10;18.95;;;;;;;;;;5108481;28;20060;-77
2022/12/11 00:15:02;;;;;;;96.03;19.38;;;;;;;;;;5092695;27;20056;-78
2022/12/11 00:17:28;;;;;;;87.45;19.40;;;;;;;;;;5108166;27;20059;-77
2022/12/11 00:19:54;;;;;;;82.45;18.83;;;;;;;;;;5105852;27;20115;-77
2022/12/11 00:22:21;;;;;;;82.53;20.25;;;;;;;;;;5105587;28;20080;-78
2022/12/11 00:24:47;;;;;;;78.88;21.95;;;;;;;;;;5107514;28;20648;-77
2022/12/11 00:27:13;;;;;;;81.78;19.52;;;;;;;;;;5101403;27;20052;-78
2022/12/11 00:29:40;;;;;;;92.53;20.60;;;;;;;;;;5098791;28;20048;-78
2022/12/11 00:32:06;;;;;;;91.90;20.55;;;;;;;;;;5103827;27;20091;-78
2022/12/11 00:34:32;;;;;;;82.88;19.10;;;;;;;;;;5087130;28;20666;-78
2022/12/11 00:36:59;;;;;;;89.30;21.15;;;;;;;;;;5088011;28;20136;-77
2022/12/11 00:39:25;;;;;;;99.18;20.83;;;;;;;;;;5115367;27;20055;-78
2022/12/11 00:41:52;;;;;;;95.88;20.90;;;;;;;;;;5125430;27;20062;-77
2022/12/11 00:44:18;;;;;;;99.68;20.45;;;;;;;;;;5106424;27;20056;-77
2022/12/11 00:46:44;;;;;;;88.30;20.10;;;;;;;;;;5106193;28;20064;-78
2022/12/11 00:49:11;;;;;;;77.00;19.98;;;;;;;;;;5069725;28;20068;-77
2022/12/11 00:51:37;;;;;;;93.78;21.52;;;;;;;;;;5097512;27;20075;-78
2022/12/11 00:54:05;;;;;;;86.55;20.00;;;;;;;;;;5098536;28;20190;-77
2022/12/11 00:56:31;;;;;;;86.05;20.92;;;;;;;;;;5091478;28;20044;-78
2022/12/11 00:58:57;;;;;;;89.82;21.38;;;;;;;;;;5102738;28;20048;-78
2022/12/11 01:01:24;;;;;;;78.90;18.40;;;;;;;;;;5069386;28;20060;-78
2022/12/11 01:03:52;;;;;;;95.28;22.13;;;;;;;;;;5094980;27;20327;-78
2022/12/11 01:06:19;;;;;;;95.47;21.85;;;;;;;;;;5091277;28;20060;-78
2022/12/11 01:08:46;;;;;;;103.82;20.77;;;;;;;;;;5086426;28;20057;-77
2022/12/11 01:11:13;;;;;;;91.07;19.70;;;;;;;;;;5086677;28;20124;-77
2022/12/11 01:13:40;;;;;;;105.03;23.15;;;;;;;;;;5099622;27;20048;-77
2022/12/11 01:16:07;;;;;;;99.45;22.48;;;;;;;;;;5106403;27;20056;-78
2022/12/11 01:18:33;;;;;;;109.05;22.25;;;;;;;;;;5092330;27;20519;-77
2022/12/11 01:21:04;;;;;;;99.88;21.70;;;;;;;;;;5099945;28;20056;-77
2022/12/11 01:23:30;;;;;;;113.55;22.15;;;;;;;;;;5107487;28;20059;-78
2022/12/11 01:25:56;;;;;;;100.95;22.73;;;;;;;;;;5109858;27;20052;-77
2022/12/11 01:28:23;;;;;;;102.40;22.27;;;;;;;;;;5089300;28;20066;-78
2022/12/11 01:30:49;;;;;;;112.13;21.60;;;;;;;;;;5090066;28;20059;-78
2022/12/11 01:33:15;;;;;;;110.45;21.30;;;;;;;;;;5085668;28;20053;-78
2022/12/11 01:35:42;;;;;;;120.40;24.00;;;;;;;;;;5103861;28;20134;-77
2022/12/11 01:38:08;;;;;;;109.40;22.08;;;;;;;;;;5096219;27;20055;-77
2022/12/11 01:40:35;;;;;;;119.97;24.40;;;;;;;;;;5079844;28;20061;-78
2022/12/11 01:43:01;;;;;;;118.88;23.65;;;;;;;;;;5087041;28;20052;-78
2022/12/11 01:45:27;;;;;;;105.68;21.13;;;;;;;;;;5086085;28;20057;-77
2022/12/11 01:47:58;;;;;;;101.68;22.08;;;;;;;;;;5101553;27;20053;-77
2022/12/11 01:50:26;;;;;;;123.05;23.48;;;;;;;;;;5105912;28;20060;-78
2022/12/11 01:52:52;;;;;;;101.43;21.50;;;;;;;;;;5107120;28;20064;-77
2022/12/11 01:55:19;;;;;;;109.55;23.60;;;;;;;;;;5102787;28;20053;-77
2022/12/11 01:57:47;;;;;;;117.13;22.38;;;;;;;;;;5092002;28;20135;-78
2022/12/11 02:00:14;;;;;;;101.97;21.10;;;;;;;;;;5087968;27;20062;-78
2022/12/11 02:02:40;;;;;;;90.60;23.27;;;;;;;;;;5096814;27;20045;-78
2022/12/11 02:05:07;;;;;;;102.30;22.70;;;;;;;;;;5085568;28;20505;-78
2022/12/11 02:07:41;;;;;;;101.57;21.70;;;;;;;;;;5100729;28;20052;-78
2022/12/11 02:10:08;;;;;;;95.93;21.70;;;;;;;;;;5111872;27;20066;-77
2022/12/11 02:12:44;;;;;;;107.60;20.80;;;;;;;;;;5097095;27;20588;-78
2022/12/11 02:15:15;;;;;;;99.90;21.70;;;;;;;;;;5088440;28;20051;-78
2022/12/11 02:18:00;;;;;;;112.60;23.23;;;;;;;;;;5102605;28;20064;-78
2022/12/11 02:20:32;;;;;;;93.05;21.35;;;;;;;;;;5098573;28;20048;-78
2022/12/11 02:22:59;;;;;;;93.60;22.05;;;;;;;;;;5092703;27;20052;-78
2022/12/11 02:25:40;;;;;;;97.93;21.98;;;;;;;;;;5120155;27;20426;-78
2022/12/11 02:28:06;;;;;;;97.57;22.63;;;;;;;;;;5106433;28;20052;-78
2022/12/11 02:30:35;;;;;;;97.68;21.95;;;;;;;;;;5092072;28;20481;-78
2022/12/11 02:33:02;;;;;;;91.85;20.75;;;;;;;;;;5085764;28;20052;-78
2022/12/11 02:35:33;;;;;;;90.47;21.00;;;;;;;;;;5099970;27;20544;-78
2022/12/11 02:38:01;;;;;;;82.15;20.55;;;;;;;;;;5081535;28;20634;-78
2022/12/11 02:40:30;;;;;;;80.18;22.05;;;;;;;;;;5089263;28;20554;-77
2022/12/11 02:42:58;;;;;;;79.72;19.92;;;;;;;;;;5089031;28;20060;-78
2022/12/11 02:45:26;;;;;;;81.70;20.08;;;;;;;;;;5089391;28;20052;-78
2022/12/11 02:47:53;;;;;;;91.82;21.92;;;;;;;;;;5102169;28;20052;-77
2022/12/11 02:50:22;;;;;;;88.18;21.48;;;;;;;;;;5105364;28;21445;-78
2022/12/11 02:52:50;;;;;;;82.80;20.25;;;;;;;;;;5095027;28;20056;-78
2022/12/11 02:55:17;;;;;;;78.40;19.73;;;;;;;;;;5103886;27;20087;-78
2022/12/11 02:57:48;;;;;;;79.60;19.90;;;;;;;;;;5102579;28;20048;-78
2022/12/11 03:00:15;;;;;;;74.60;19.90;;;;;;;;;;5107293;28;20058;-77
2022/12/11 03:02:42;;;;;;;78.18;20.52;;;;;;;;;;5107433;28;20060;-78
2022/12/11 03:05:10;;;;;;;77.30;20.02;;;;;;;;;;5093666;27;20052;-78
2022/12/11 03:07:37;;;;;;;83.30;21.45;;;;;;;;;;5102736;27;20060;-78
2022/12/11 03:10:06;;;;;;;82.40;20.85;;;;;;;;;;5104718;28;20836;-78
2022/12/11 03:12:35;;;;;;;67.72;20.13;;;;;;;;;;5096910;28;20064;-78
2022/12/11 03:15:02;;;;;;;65.38;20.48;;;;;;;;;;5073543;28;20056;-78
2022/12/11 03:17:31;;;;;;;78.40;20.80;;;;;;;;;;5096153;27;20053;-78
2022/12/11 03:20:00;;;;;;;66.25;20.52;;;;;;;;;;5094132;27;20412;-78
2022/12/11 03:22:35;;;;;;;67.55;20.75;;;;;;;;;;5084803;28;20102;-78
2022/12/11 03:25:06;;;;;;;71.93;19.63;;;;;;;;;;5097398;28;20048;-78
2022/12/11 03:27:35;;;;;;;75.40;20.38;;;;;;;;;;5092999;28;20052;-77
2022/12/11 03:30:04;;;;;;;77.03;20.10;;;;;;;;;;5093709;27;20041;-78
2022/12/11 03:32:34;;;;;;;66.13;19.42;;;;;;;;;;5103124;28;20048;-78
2022/12/11 03:35:07;;;;;;;63.15;19.60;;;;;;;;;;5104399;28;20547;-77
2022/12/11 03:37:35;;;;;;;68.50;21.05;;;;;;;;;;5094725;28;20071;-78
2022/12/11 03:40:05;;;;;;;69.50;21.92;;;;;;;;;;5108023;28;20135;-78
2022/12/11 03:42:32;;;;;;;64.83;21.93;;;;;;;;;;5111060;27;20060;-77
2022/12/11 03:44:59;;;;;;;68.22;20.67;;;;;;;;;;5095555;28;20273;-78
2022/12/11 03:47:27;;;;;;;62.50;19.70;;;;;;;;;;5106728;28;20056;-78
2022/12/11 03:49:54;;;;;;;64.72;18.70;;;;;;;;;;5107596;28;20548;-78
2022/12/11 03:52:21;;;;;;;59.20;17.63;;;;;;;;;;5099702;28;20054;-78
2022/12/11 03:54:49;;;;;;;58.25;19.95;;;;;;;;;;5101010;27;20048;-77
2022/12/11 03:57:16;;;;;;;55.95;18.98;;;;;;;;;;5104918;28;20084;-78
2022/12/11 03:59:43;;;;;;;64.15;19.27;;;;;;;;;;5089681;28;20063;-77
2022/12/11 04:02:09;;;;;;;55.67;19.52;;;;;;;;;;5096994;28;20423;-78
2022/12/11 04:04:39;;;;;;;60.13;18.83;;;;;;;;;;5102478;28;20052;-78
2022/12/11 04:07:06;;;;;;;65.72;20.05;;;;;;;;;;5091552;27;20114;-78
2022/12/11 04:09:33;;;;;;;62.72;20.13;;;;;;;;;;5087557;28;20049;-78
2022/12/11 04:11:59;;;;;;;59.45;18.48;;;;;;;;;;5092858;28;20521;-78
2022/12/11 04:24:13;;;;;;;50.50;17.27;;;;;;;;;;5099394;27;20060;-78
2022/12/11 04:25:28;;;;;;;45.58;16.05;;;;;;;;;;5101132;28;20060;-77
2022/12/11 04:27:55;;;;;;;43.65;15.63;;;;;;;;;;5100038;27;20056;-78
2022/12/11 04:30:23;;;;;;;46.72;15.73;;;;;;;;;;5081005;28;20071;-78
2022/12/11 04:32:54;;;;;;;44.78;16.85;;;;;;;;;;5086736;28;20048;-78
2022/12/11 04:35:21;;;;;;;43.80;15.77;;;;;;;;;;5092289;28;20450;-77
2022/12/11 04:37:48;;;;;;;46.38;17.17;;;;;;;;;;5097505;28;20045;-78
2022/12/11 04:40:15;;;;;;;42.85;15.93;;;;;;;;;;5099891;28;20052;-77
2022/12/11 04:42:42;;;;;;;42.28;17.05;;;;;;;;;;5098383;27;20119;-78
2022/12/11 04:45:09;;;;;;;43.05;15.50;;;;;;;;;;5093221;28;20458;-78
2022/12/11 04:47:36;;;;;;;43.28;16.60;;;;;;;;;;5100756;28;20064;-78
2022/12/11 04:50:04;;;;;;;40.78;14.27;;;;;;;;;;5102165;28;20412;-78
2022/12/11 04:52:30;;;;;;;38.88;15.85;;;;;;;;;;5098111;28;20114;-78
2022/12/11 04:54:56;;;;;;;39.92;14.80;;;;;;;;;;5101067;27;20055;-78
2022/12/11 04:57:23;;;;;;;39.13;15.77;;;;;;;;;;5100962;28;20048;-78
2022/12/11 04:59:49;;;;;;;44.42;15.10;;;;;;;;;;5101718;28;20621;-78
2022/12/11 05:02:15;;;;;;;42.88;15.00;;;;;;;;;;5098849;28;20241;-78
2022/12/11 05:04:42;;;;;;;34.95;14.25;;;;;;;;;;5095402;28;20083;-77
2022/12/11 05:07:08;;;;;;;41.50;14.95;;;;;;;;;;5085487;27;20599;-78
2022/12/11 05:09:35;;;;;;;32.40;12.82;;;;;;;;;;5097255;28;20297;-78
2022/12/11 05:12:01;;;;;;;41.22;14.48;;;;;;;;;;5100238;28;20181;-78
2022/12/11 05:14:30;;;;;;;38.28;14.30;;;;;;;;;;5100520;28;20540;-78
2022/12/11 05:16:57;;;;;;;34.45;13.25;;;;;;;;;;5094763;28;20577;-77
2022/12/11 05:19:24;;;;;;;33.28;12.02;;;;;;;;;;5099396;27;20056;-78
2022/12/11 05:21:50;;;;;;;33.03;12.25;;;;;;;;;;5105202;27;20059;-78
2022/12/11 05:24:16;;;;;;;32.05;12.98;;;;;;;;;;5104258;28;20059;-78
2022/12/11 05:26:43;;;;;;;31.17;12.82;;;;;;;;;;5102114;28;20551;-78
2022/12/11 05:29:09;;;;;;;35.83;12.73;;;;;;;;;;5088314;28;20533;-79
2022/12/11 05:31:36;;;;;;;39.58;14.32;;;;;;;;;;5092366;27;20088;-79
2022/12/11 05:34:02;;;;;;;31.83;12.85;;;;;;;;;;5093578;28;20153;-79
2022/12/11 05:36:30;;;;;;;39.88;13.73;;;;;;;;;;5090331;28;20063;-79
2022/12/11 05:38:57;;;;;;;36.00;13.48;;;;;;;;;;5097813;27;20056;-79
2022/12/11 05:41:24;;;;;;;31.98;13.07;;;;;;;;;;5102710;28;20063;-78
2022/12/11 05:43:50;;;;;;;34.55;13.52;;;;;;;;;;5082097;28;20048;-79
2022/12/11 05:46:18;;;;;;;33.40;12.43;;;;;;;;;;5110678;28;20055;-78
2022/12/11 05:48:46;;;;;;;37.70;14.68;;;;;;;;;;5111124;28;20056;-79
2022/12/11 05:51:13;;;;;;;40.45;15.88;;;;;;;;;;5109272;28;20143;-78
2022/12/11 05:53:40;;;;;;;39.10;15.00;;;;;;;;;;5105821;27;20104;-78
2022/12/11 05:56:08;;;;;;;42.13;15.07;;;;;;;;;;5110587;28;20036;-78
2022/12/11 05:58:35;;;;;;;41.50;14.65;;;;;;;;;;5099881;28;20052;-78
2022/12/11 06:01:05;;;;;;;43.47;15.23;;;;;;;;;;5102671;28;20366;-80
2022/12/11 06:03:32;;;;;;;39.00;14.48;;;;;;;;;;5088441;27;20048;-80
2022/12/11 06:06:03;;;;;;;41.90;16.38;;;;;;;;;;5098060;28;20056;-79
2022/12/11 06:08:29;;;;;;;46.78;16.92;;;;;;;;;;5101212;27;20126;-79
2022/12/11 06:10:56;;;;;;;42.70;14.43;;;;;;;;;;5091777;28;20525;-79
2022/12/11 06:13:22;;;;;;;43.10;16.33;;;;;;;;;;5106490;27;20135;-79
2022/12/11 06:15:49;;;;;;;45.30;16.63;;;;;;;;;;5101310;28;20064;-79
2022/12/11 06:18:15;;;;;;;42.55;16.17;;;;;;;;;;5086767;28;20091;-79
2022/12/11 06:20:41;;;;;;;45.13;16.70;;;;;;;;;;5106052;28;20059;-79
2022/12/11 06:23:08;;;;;;;37.92;14.77;;;;;;;;;;5089947;27;20059;-79
2022/12/11 06:25:36;;;;;;;43.05;15.50;;;;;;;;;;5107712;27;20147;-80
2022/12/11 06:28:03;;;;;;;41.80;15.10;;;;;;;;;;5084500;28;20049;-79
2022/12/11 06:30:29;;;;;;;42.30;15.50;;;;;;;;;;5103472;28;20147;-79
2022/12/11 06:33:04;;;;;;;45.25;16.20;;;;;;;;;;5081458;27;20105;-79
2022/12/11 06:35:31;;;;;;;43.75;15.68;;;;;;;;;;5086322;28;20139;-79
2022/12/11 06:38:03;;;;;;;40.50;15.65;;;;;;;;;;5103454;28;20214;-79
2022/12/11 06:40:30;;;;;;;42.72;15.55;;;;;;;;;;5111216;28;20589;-79
2022/12/11 06:42:56;;;;;;;48.08;17.27;;;;;;;;;;5104872;28;20052;-79
2022/12/11 06:45:22;;;;;;;42.70;15.65;;;;;;;;;;5085223;28;20060;-79
2022/12/11 06:47:49;;;;;;;44.47;15.60;;;;;;;;;;5105420;28;20051;-79
2022/12/11 06:50:15;;;;;;;40.92;16.15;;;;;;;;;;5107342;27;20473;-79
2022/12/11 06:52:42;;;;;;;46.22;16.10;;;;;;;;;;5097317;28;20051;-79
2022/12/11 06:55:08;;;;;;;44.25;16.95;;;;;;;;;;5100640;28;20067;-79
2022/12/11 06:57:35;;;;;;;47.55;16.90;;;;;;;;;;5097933;27;20055;-79
2022/12/11 07:00:02;;;;;;;43.60;16.92;;;;;;;;;;5099525;28;20139;-79
2022/12/11 07:02:28;;;;;;;49.05;18.13;;;;;;;;;;5109255;28;20059;-79
2022/12/11 07:04:55;;;;;;;47.33;15.90;;;;;;;;;;5106257;28;20056;-79
2022/12/11 07:07:21;;;;;;;42.58;16.20;;;;;;;;;;5109981;27;20060;-79
2022/12/11 07:09:48;;;;;;;43.60;15.90;;;;;;;;;;5098265;28;20044;-79
2022/12/11 07:12:15;;;;;;;43.03;16.35;;;;;;;;;;5103822;28;20043;-79
2022/12/11 07:14:42;;;;;;;39.88;15.75;;;;;;;;;;5108871;28;20168;-79
2022/12/11 07:17:08;;;;;;;42.80;15.88;;;;;;;;;;5089789;28;20139;-79
2022/12/11 07:19:34;;;;;;;40.30;15.50;;;;;;;;;;5101017;27;20063;-79
2022/12/11 07:22:01;;;;;;;44.15;16.88;;;;;;;;;;5071400;28;20048;-79
2022/12/11 07:24:27;;;;;;;44.47;16.92;;;;;;;;;;5096874;28;20147;-79
2022/12/11 07:26:53;;;;;;;39.70;15.98;;;;;;;;;;5099852;28;20052;-79
2022/12/11 07:29:20;;;;;;;46.95;17.67;;;;;;;;;;5108920;28;20134;-79
2022/12/11 07:31:46;;;;;;;43.72;17.25;;;;;;;;;;5106514;27;20056;-79
2022/12/11 07:34:13;;;;;;;40.55;16.48;;;;;;;;;;5090299;27;20060;-79
2022/12/11 07:36:39;;;;;;;41.10;16.33;;;;;;;;;;5099619;27;20052;-79
2022/12/11 07:39:07;;;;;;;40.20;16.95;;;;;;;;;;5085735;28;20443;-79
2022/12/11 07:41:34;;;;;;;49.58;18.48;;;;;;;;;;5072686;27;20064;-79
2022/12/11 07:44:00;;;;;;;42.38;16.65;;;;;;;;;;5108608;27;20062;-79
2022/12/11 07:46:27;;;;;;;41.58;17.13;;;;;;;;;;5091224;27;20049;-79
2022/12/11 07:48:54;;;;;;;46.63;16.13;;;;;;;;;;5096722;27;20052;-79
2022/12/11 07:51:23;;;;;;;45.30;17.70;;;;;;;;;;5095796;27;20052;-78
2022/12/11 07:53:50;;;;;;;43.10;17.58;;;;;;;;;;5084464;28;20548;-78
2022/12/11 07:56:17;;;;;;;46.53;18.13;;;;;;;;;;5097281;28;20052;-79
2022/12/11 07:58:44;;;;;;;47.92;18.00;;;;;;;;;;5116010;27;20446;-79
2022/12/11 08:01:11;;;;;;;45.83;18.15;;;;;;;;;;5098876;28;20507;-78
2022/12/11 08:03:38;;;;;;;46.35;17.73;;;;;;;;;;5095567;27;20510;-79
2022/12/11 08:06:11;;;;;;;46.85;17.45;;;;;;;;;;5096526;27;20055;-79
2022/12/11 08:08:39;;;;;;;44.63;17.70;;;;;;;;;;5104325;27;20245;-79
2022/12/11 08:11:07;;;;;;;43.60;17.38;;;;;;;;;;5098384;28;20379;-79
2022/12/11 08:13:34;;;;;;;44.97;17.13;;;;;;;;;;5104155;28;20549;-79
2022/12/11 08:16:04;;;;;;;42.60;16.38;;;;;;;;;;5077383;27;20441;-79
2022/12/11 08:18:31;;;;;;;40.72;16.27;;;;;;;;;;5092877;27;20051;-78
2022/12/11 08:20:58;;;;;;;40.00;17.25;;;;;;;;;;5094667;28;20052;-79
2022/12/11 08:23:24;;;;;;;41.55;17.88;;;;;;;;;;5077918;28;20056;-78
2022/12/11 08:25:50;;;;;;;42.60;16.90;;;;;;;;;;5075246;28;20059;-78
2022/12/11 08:28:17;;;;;;;43.17;17.65;;;;;;;;;;5102575;27;20059;-79
2022/12/11 08:30:43;;;;;;;37.78;15.32;;;;;;;;;;5095163;28;20052;-78
2022/12/11 08:33:09;;;;;;;37.10;14.68;;;;;;;;;;5095279;27;20096;-78
2022/12/11 08:35:39;;;;;;;32.65;13.98;;;;;;;;;;5102234;28;20094;-79
2022/12/11 08:38:06;;;;;;;38.63;14.73;;;;;;;;;;5093131;27;20052;-78
2022/12/11 08:40:32;;;;;;;39.63;14.15;;;;;;;;;;5093716;28;20055;-78
2022/12/11 08:42:58;;;;;;;34.65;13.52;;;;;;;;;;5098198;27;20557;-78
2022/12/11 08:45:25;;;;;;;35.60;14.25;;;;;;;;;;5101728;27;20055;-78
2022/12/11 08:47:52;;;;;;;36.00;14.57;;;;;;;;;;5096924;28;20147;-78
2022/12/11 08:50:19;;;;;;;39.05;14.52;;;;;;;;;;5084929;27;20143;-78
2022/12/11 08:52:45;;;;;;;38.13;15.93;;;;;;;;;;5085900;27;20052;-78
2022/12/11 08:55:11;;;;;;;37.90;14.25;;;;;;;;;;5086415;28;20056;-78
2022/12/11 08:57:38;;;;;;;36.60;15.93;;;;;;;;;;5096687;27;20075;-78
2022/12/11 09:00:06;;;;;;;36.50;15.05;;;;;;;;;;5094924;27;20083;-78
2022/12/11 09:02:32;;;;;;;36.88;14.27;;;;;;;;;;5093989;28;21885;-80
2022/12/11 09:04:58;;;;;;;34.33;13.52;;;;;;;;;;5098652;27;20261;-78
2022/12/11 09:07:25;;;;;;;34.58;14.18;;;;;;;;;;5104578;27;20500;-78
2022/12/11 09:09:54;;;;;;;36.83;14.65;;;;;;;;;;5100509;27;20532;-78
2022/12/11 09:12:21;;;;;;;36.47;13.68;;;;;;;;;;5099313;27;20057;-78
2022/12/11 09:14:48;;;;;;;37.10;14.43;;;;;;;;;;5101837;27;20759;-78
2022/12/11 09:17:14;;;;;;;39.05;15.35;;;;;;;;;;5099480;27;20507;-78
2022/12/11 09:19:41;;;;;;;40.67;15.70;;;;;;;;;;5099006;28;20130;-78
2022/12/11 09:22:10;;;;;;;36.53;13.85;;;;;;;;;;5091996;27;20144;-78
2022/12/11 09:24:36;;;;;;;39.60;15.25;;;;;;;;;;5109948;27;20077;-78
2022/12/11 09:27:03;;;;;;;41.70;14.43;;;;;;;;;;5103643;27;20060;-77
2022/12/11 09:29:30;;;;;;;34.03;13.77;;;;;;;;;;5106780;27;20063;-78
2022/12/11 09:31:56;;;;;;;35.58;14.88;;;;;;;;;;5109974;27;20260;-78
2022/12/11 09:34:22;;;;;;;37.35;15.40;;;;;;;;;;5104061;27;20538;-78
2022/12/11 09:36:54;;;;;;;36.97;14.55;;;;;;;;;;5086347;28;20666;-78
2022/12/11 09:39:21;;;;;;;38.10;14.48;;;;;;;;;;5107985;27;20066;-78
2022/12/11 09:42:11;;;;;;;32.42;13.48;;;;;;;;;;5101046;27;20059;-78
2022/12/11 09:44:41;;;;;;;36.20;15.32;;;;;;;;;;5103131;27;20529;-78
2022/12/11 09:47:19;;;;;;;37.92;14.65;;;;;;;;;;5102522;27;20052;-78
2022/12/11 09:49:48;;;;;;;41.40;15.82;;;;;;;;;;5101849;28;20056;-78
2022/12/11 09:52:17;;;;;;;40.33;15.98;;;;;;;;;;5100043;28;20474;-78
2022/12/11 09:54:48;;;;;;;37.28;15.13;;;;;;;;;;5087274;28;20135;-78
2022/12/11 09:57:29;;;;;;;34.47;14.02;;;;;;;;;;5113016;27;20066;-78
2022/12/11 10:00:04;;;;;;;35.78;14.52;;;;;;;;;;5098775;27;20482;-78
2022/12/11 10:02:44;;;;;;;36.35;14.80;;;;;;;;;;5097146;28;20125;-78
2022/12/11 10:05:40;;;;;;;37.72;13.68;;;;;;;;;;5105518;27;20138;-78
2022/12/11 10:08:30;;;;;;;34.95;13.88;;;;;;;;;;5094628;27;20058;-78
2022/12/11 10:11:03;;;;;;;35.40;14.05;;;;;;;;;;5112712;28;20352;-78
2022/12/11 10:13:30;;;;;;;35.53;14.70;;;;;;;;;;5110450;28;20052;-78
2022/12/11 10:15:56;;;;;;;33.30;13.27;;;;;;;;;;5101994;28;20079;-79
2022/12/11 10:18:25;;;;;;;34.55;13.52;;;;;;;;;;5109617;27;20145;-79
2022/12/11 10:20:51;;;;;;;34.65;14.38;;;;;;;;;;5100481;27;20052;-78
2022/12/11 10:23:27;;;;;;;33.50;12.98;;;;;;;;;;5107503;27;20052;-78
2022/12/11 10:26:09;;;;;;;32.72;14.35;;;;;;;;;;5086265;27;20118;-78
2022/12/11 10:28:35;;;;;;;34.05;13.23;;;;;;;;;;5105333;27;20128;-79
2022/12/11 10:31:17;;;;;;;40.60;14.43;;;;;;;;;;5110017;27;20070;-79
2022/12/11 10:33:43;;;;;;;31.90;13.48;;;;;;;;;;5087833;27;20052;-79
2022/12/11 10:36:12;;;;;;;33.25;14.13;;;;;;;;;;5103823;27;20048;-79
2022/12/11 10:38:42;;;;;;;31.85;13.32;;;;;;;;;;5099166;27;20613;-79
2022/12/11 10:41:10;;;;;;;45.42;20.70;;;;;;;;;;5105935;28;20055;-78
2022/12/11 10:43:41;;;;;;;33.97;14.20;;;;;;;;;;5101902;28;20052;-79
2022/12/11 10:46:15;;;;;;;34.33;13.88;;;;;;;;;;5101335;28;20055;-78
2022/12/11 10:48:46;;;;;;;30.67;13.30;;;;;;;;;;5079003;28;20094;-79
2022/12/11 10:51:13;;;;;;;34.50;15.10;;;;;;;;;;5102618;28;20487;-79
2022/12/11 10:53:39;;;;;;;38.90;14.07;;;;;;;;;;5101742;27;20056;-78
2022/12/11 10:56:05;;;;;;;35.70;14.32;;;;;;;;;;5101164;27;20073;-79
2022/12/11 10:58:34;;;;;;;28.23;12.38;;;;;;;;;;5087426;28;20075;-79
2022/12/11 11:01:08;;;;;;;36.33;13.90;;;;;;;;;;5106260;28;20591;-79
2022/12/11 11:03:36;;;;;;;49.72;21.42;;;;;;;;;;5104758;28;20596;-79
2022/12/11 11:06:13;;;;;;;31.15;12.80;;;;;;;;;;5097162;27;20056;-78
2022/12/11 11:08:42;;;;;;;34.75;15.32;;;;;;;;;;5087301;28;20530;-79
2022/12/11 11:11:19;;;;;;;30.05;13.90;;;;;;;;;;5080199;28;20537;-79
2022/12/11 11:13:45;;;;;;;39.67;17.10;;;;;;;;;;5103463;27;20579;-79
2022/12/11 11:16:14;;;;;;;27.20;11.88;;;;;;;;;;5097209;28;20567;-79
2022/12/11 11:18:42;;;;;;;28.88;12.07;;;;;;;;;;5098323;28;20060;-79
2022/12/11 11:21:15;;;;;;;31.95;14.55;;;;;;;;;;5097149;28;20067;-79
2022/12/11 11:23:42;;;;;;;30.38;12.63;;;;;;;;;;5092684;28;20092;-78
2022/12/11 11:26:16;;;;;;;26.20;11.98;;;;;;;;;;5095349;28;20060;-79
2022/12/11 11:28:46;;;;;;;27.48;11.32;;;;;;;;;;5098806;27;20060;-79
2022/12/11 11:31:13;;;;;;;27.70;12.43;;;;;;;;;;5107920;27;20056;-79
2022/12/11 11:33:46;;;;;;;29.67;12.73;;;;;;;;;;5091892;27;20060;-79
2022/12/11 11:36:20;;;;;;;29.77;12.05;;;;;;;;;;5101632;28;20090;-79
2022/12/11 11:39:05;;;;;;;27.65;12.25;;;;;;;;;;5096739;27;20053;-79
2022/12/11 11:41:47;;;;;;;30.75;12.10;;;;;;;;;;5098040;27;20178;-78
2022/12/11 11:44:15;;;;;;;27.25;11.70;;;;;;;;;;5100331;27;20079;-78
2022/12/11 11:46:47;;;;;;;30.60;12.80;;;;;;;;;;5099192;27;20525;-79
2022/12/11 11:49:14;;;;;;;28.30;13.27;;;;;;;;;;5089790;27;20143;-78
2022/12/11 11:51:46;;;;;;;30.45;13.48;;;;;;;;;;5098523;28;20571;-78
2022/12/11 11:54:31;;;;;;;32.38;14.30;;;;;;;;;;5099126;28;20052;-78
2022/12/11 11:57:00;;;;;;;28.73;12.20;;;;;;;;;;5080536;28;20132;-79
2022/12/11 11:59:30;;;;;;;28.27;11.00;;;;;;;;;;5102162;27;20048;-79
2022/12/11 12:01:56;;;;;;;26.98;12.02;;;;;;;;;;5088149;28;20054;-81
2022/12/11 12:04:24;;;;;;;28.23;11.68;;;;;;;;;;5108524;27;20128;-79
2022/12/11 12:07:08;;;;;;;25.38;12.00;;;;;;;;;;5089554;28;20052;-79
2022/12/11 12:09:35;;;;;;;27.08;12.75;;;;;;;;;;5092711;27;20057;-79
2022/12/11 12:12:20;;;;;;;25.42;10.43;;;;;;;;;;5108110;28;20063;-79
2022/12/11 12:15:10;;;;;;;28.20;11.30;;;;;;;;;;5084406;28;20052;-79
2022/12/11 12:17:57;;;;;;;31.55;12.38;;;;;;;;;;5102924;27;20078;-79
2022/12/11 12:20:42;;;;;;;26.02;11.00;;;;;;;;;;5099047;27;20098;-79
2022/12/11 12:23:23;;;;;;;32.38;11.82;;;;;;;;;;5079943;27;20565;-79
2022/12/11 12:25:53;;;;;;;27.15;10.57;;;;;;;;;;5093603;27;20236;-79
2022/12/11 12:28:19;;;;;;;24.45;10.68;;;;;;;;;;5105916;28;20056;-79
2022/12/11 12:30:45;;;;;;;31.67;12.75;;;;;;;;;;5103964;28;20920;-79
2022/12/11 12:33:18;;;;;;;28.20;11.88;;;;;;;;;;5104633;27;20179;-79
2022/12/11 12:35:53;;;;;;;28.65;10.80;;;;;;;;;;5110829;27;20053;-79
2022/12/11 12:38:41;;;;;;;35.42;11.00;;;;;;;;;;5108928;27;20063;-79
2022/12/11 12:41:13;;;;;;;35.13;15.23;;;;;;;;;;5113722;27;20104;-78
2022/12/11 12:43:46;;;;;;;25.83;10.95;;;;;;;;;;5071188;28;20056;-77
2022/12/11 12:46:26;;;;;;;39.63;17.80;;;;;;;;;;5105654;27;20056;-77
2022/12/11 12:48:53;;;;;;;36.53;13.85;;;;;;;;;;5101627;27;20067;-78
2022/12/11 12:51:20;;;;;;;31.27;14.10;;;;;;;;;;5106581;28;20058;-78
2022/12/11 12:53:48;;;;;;;27.70;12.30;;;;;;;;;;5100927;28;20578;-78
2022/12/11 12:56:15;;;;;;;28.65;12.18;;;;;;;;;;5093210;28;20042;-78
2022/12/11 12:58:42;;;;;;;31.48;12.50;;;;;;;;;;5103503;27;20507;-77
2022/12/11 13:01:12;;;;;;;31.08;13.23;;;;;;;;;;5110029;27;20070;-77
2022/12/11 13:04:07;;;;;;;33.10;12.95;;;;;;;;;;5129059;27;20055;-77
2022/12/11 13:06:51;;;;;;;30.63;12.45;;;;;;;;;;5112043;27;20043;-77
2022/12/11 13:09:22;;;;;;;44.05;17.80;;;;;;;;;;5110047;27;20052;-77
2022/12/11 13:11:52;;;;;;;33.63;13.35;;;;;;;;;;5108721;28;20083;-77
2022/12/11 13:14:19;;;;;;;41.90;14.45;;;;;;;;;;5099338;27;20059;-77
2022/12/11 13:16:47;;;;;;;37.20;13.82;;;;;;;;;;5098417;28;20529;-78
2022/12/11 13:19:31;;;;;;;33.17;13.00;;;;;;;;;;5096215;27;20537;-77
2022/12/11 13:22:03;;;;;;;33.55;13.32;;;;;;;;;;5099162;27;20569;-77
2022/12/11 13:24:31;;;;;;;38.90;14.23;;;;;;;;;;5084399;28;20133;-77
2022/12/11 13:27:07;;;;;;;36.53;14.68;;;;;;;;;;5088367;28;20055;-77
2022/12/11 13:29:35;;;;;;;32.92;13.48;;;;;;;;;;5100822;28;20048;-77
2022/12/11 13:32:01;;;;;;;36.20;14.75;;;;;;;;;;5107956;27;20052;-78
2022/12/11 13:34:32;;;;;;;38.03;14.40;;;;;;;;;;5100047;28;20075;-77
2022/12/11 13:36:58;;;;;;;;;;;;;;;;;;5084870;28;20174;-78
2022/12/11 13:39:26;;;;;;;37.10;13.75;;;;;;;;;;5111246;27;47109;-77
2022/12/11 13:42:01;;;;;;;37.13;13.60;;;;;;;;;;5072167;28;20032;-77
2022/12/11 13:44:36;;;;;;;38.80;13.52;;;;;;;;;;5107893;27;20503;-77
2022/12/11 13:47:04;;;;;;;39.70;14.10;;;;;;;;;;5095964;27;20549;-78
2022/12/11 13:49:36;;;;;;;40.88;14.95;;;;;;;;;;5105764;28;20470;-78
2022/12/11 13:52:03;;;;;;;36.05;14.25;;;;;;;;;;5091936;27;20537;-77
2022/12/11 13:54:30;;;;;;;45.33;16.85;;;;;;;;;;5109150;27;20051;-77
2022/12/11 13:57:14;;;;;;;40.80;14.45;;;;;;;;;;5098337;27;20092;-77
2022/12/11 13:59:41;;;;;;;39.03;14.30;;;;;;;;;;5095299;28;20143;-77
2022/12/11 14:02:18;;;;;;;38.80;15.60;;;;;;;;;;5100500;27;20136;-77
2022/12/11 14:04:45;;;;;;;37.90;14.90;;;;;;;;;;5090112;28;20068;-77
2022/12/11 14:07:11;;;;;;;39.42;15.73;;;;;;;;;;5092788;27;20056;-77
2022/12/11 14:09:41;;;;;;;62.30;23.88;;;;;;;;;;5102665;27;20503;-77
2022/12/11 14:12:28;;;;;;;43.25;17.50;;;;;;;;;;5098549;28;20153;-78
2022/12/11 14:14:55;;;;;;;44.97;17.95;;;;;;;;;;5106305;28;20075;-77
2022/12/11 14:17:30;;;;;;;43.97;18.17;;;;;;;;;;5097225;28;20075;-77
2022/12/11 14:19:59;;;;;;;47.53;18.30;;;;;;;;;;5094697;27;20056;-77
2022/12/11 14:22:27;;;;;;;44.55;16.38;;;;;;;;;;5101320;28;20063;-77
2022/12/11 14:24:54;;;;;;;44.17;17.83;;;;;;;;;;5100786;27;20056;-77
2022/12/11 14:27:21;;;;;;;50.25;20.35;;;;;;;;;;5098567;27;20056;-76
2022/12/11 14:29:48;;;;;;;42.72;16.17;;;;;;;;;;5098932;27;20048;-77
2022/12/11 14:32:30;;;;;;;41.35;15.95;;;;;;;;;;5097150;27;20060;-77
2022/12/11 14:34:57;;;;;;;45.40;18.30;;;;;;;;;;5114336;27;20143;-77